Time;durP1;ratioP1;P1;durP2;ratioP2;P2;SDS_P1;SDS_P2;PMS_P1;PMS_P2;Temp;Humidity;BMP_temperature;BMP_pressure;BME280_temperature;BME280_humidity;BME280_pressure;Samples;Min_cycle;Max_cycle;Signal;HPM_P1;HPM_P2
2021/12/02 00:02:03;;;;;;;;;3.00;3.00;;;;;8.96;71.11;100059.53;5059542;28;45497;-77
2021/12/02 00:04:31;;;;;;;;;3.33;3.00;;;;;9.02;70.95;100069.22;5059339;28;45548;-78
2021/12/02 00:06:56;;;;;;;;;4.33;2.67;;;;;9.05;70.51;100066.59;5059398;28;46891;-79
2021/12/02 00:09:21;;;;;;;;;3.33;2.00;;;;;9.07;70.79;100076.28;5059392;28;45885;-78
2021/12/02 00:11:47;;;;;;;;;4.33;2.33;;;;;9.08;70.91;100082.41;5058422;28;45407;-78
2021/12/02 00:14:14;;;;;;;;;3.00;1.67;;;;;9.08;70.99;100083.28;5062921;28;45642;-79
2021/12/02 00:22:34;;;;;;;;;5.00;4.33;;;;;9.11;70.62;100093.84;5058791;28;45581;-79
2021/12/02 00:25:06;;;;;;;;;6.00;3.67;;;;;9.08;70.29;100087.69;5041533;28;45365;-79
2021/12/02 00:27:34;;;;;;;;;4.00;3.00;;;;;9.13;70.63;100094.72;5041392;28;46269;-80
2021/12/02 00:30:03;;;;;;;;;4.33;3.00;;;;;9.14;70.49;100093.84;5053033;28;45333;-79
2021/12/02 00:32:29;;;;;;;;;5.50;4.00;;;;;9.15;70.47;100086.81;5052027;28;45518;-78
2021/12/02 00:34:55;;;;;;;;;4.25;4.25;;;;;9.14;70.64;100085.06;5054353;28;45533;-78
2021/12/02 00:37:21;;;;;;;;;5.67;3.00;;;;;9.10;70.51;100086.78;5042290;28;47036;-78
2021/12/02 00:39:47;;;;;;;;;10.50;6.75;;;;;9.03;70.59;100078.88;5030293;28;46122;-78
2021/12/02 00:42:15;;;;;;;;;7.00;3.75;;;;;9.12;70.95;100106.13;5044253;28;45435;-79
2021/12/02 00:44:43;;;;;;;;;7.00;6.00;;;;;9.12;70.62;100097.38;5041556;28;45195;-79
2021/12/02 00:47:12;;;;;;;;;4.00;3.00;;;;;9.11;70.84;100103.50;5040400;28;52578;-79
2021/12/02 00:49:39;;;;;;;;;6.00;3.33;;;;;9.10;70.73;100102.59;5058780;28;45412;-79
2021/12/02 00:52:08;;;;;;;;;8.33;4.00;;;;;9.11;70.74;100095.63;5057804;28;45348;-79
2021/12/02 00:54:39;;;;;;;;;6.00;4.25;;;;;9.10;71.02;100097.34;5041305;28;45593;-79
2021/12/02 00:57:04;;;;;;;;;4.50;3.00;;;;;9.12;70.93;100107.91;5040803;28;47562;-78
2021/12/02 00:59:32;;;;;;;;;5.75;4.75;;;;;9.14;70.98;100114.03;5058827;28;45439;-79
2021/12/02 01:01:58;;;;;;;;;6.25;3.75;;;;;9.09;70.88;100099.97;5040192;28;45514;-78
2021/12/02 01:04:24;;;;;;;;;7.00;4.50;;;;;9.22;70.67;100116.72;5058587;28;45534;-79
2021/12/02 01:06:52;;;;;;;;;7.75;7.00;;;;;9.21;71.01;100109.69;5058504;28;46962;-79
2021/12/02 01:09:20;;;;;;;;;6.00;4.00;;;;;9.26;70.77;100121.13;5058209;28;45157;-79
2021/12/02 01:11:49;;;;;;;;;8.00;5.50;;;;;9.24;71.02;100115.84;5020980;28;45625;-78
2021/12/02 01:14:15;;;;;;;;;3.50;3.50;;;;;9.27;70.90;100122.88;5053314;28;45474;-78
2021/12/02 01:16:40;;;;;;;;;7.00;3.00;;;;;9.28;71.33;100128.19;5058512;28;47325;-78
2021/12/02 01:19:06;;;;;;;;;7.25;5.00;;;;;9.29;71.06;100129.06;5057798;28;46863;-79
2021/12/02 01:21:31;;;;;;;;;8.00;6.00;;;;;9.23;71.03;100114.09;5058006;28;45477;-79
2021/12/02 01:24:03;;;;;;;;;8.00;6.50;;;;;9.31;71.29;100120.25;5057890;28;45536;-78
2021/12/02 01:26:35;;;;;;;;;6.75;6.50;;;;;9.34;71.16;100132.59;5058258;28;46589;-79
2021/12/02 01:29:03;;;;;;;;;6.00;4.50;;;;;9.36;71.05;100130.81;5058227;28;45371;-78
2021/12/02 01:31:31;;;;;;;;;6.25;4.50;;;;;9.37;71.45;100124.69;5057984;28;45564;-79
2021/12/02 01:33:56;;;;;;;;;10.50;5.00;;;;;9.39;71.12;100136.13;5054498;28;45495;-78
2021/12/02 01:36:25;;;;;;;;;7.33;6.00;;;;;9.31;71.02;100130.81;5034918;28;48338;-79
2021/12/02 01:38:53;;;;;;;;;8.00;7.00;;;;;9.34;71.05;100148.41;5035376;28;48069;-79
2021/12/02 01:41:19;;;;;;;;;6.00;4.50;;;;;9.32;71.08;100158.03;5021028;28;45270;-78
2021/12/02 01:43:45;;;;;;;;;3.75;3.75;;;;;9.32;71.25;100160.66;5056724;28;45493;-79
2021/12/02 01:46:17;;;;;;;;;11.00;6.50;;;;;9.29;71.29;100161.53;5057999;28;46627;-79
2021/12/02 01:48:46;;;;;;;;;6.00;6.00;;;;;9.29;71.37;100161.53;5057722;28;45510;-79
2021/12/02 01:51:12;;;;;;;;;6.50;6.50;;;;;9.30;71.12;100163.28;5023845;28;45295;-79
2021/12/02 01:53:41;;;;;;;;;7.00;5.00;;;;;9.30;71.00;100163.28;5057464;28;45234;-78
2021/12/02 01:56:13;;;;;;;;;7.50;6.50;;;;;9.28;71.17;100164.19;5057817;28;46524;-79
2021/12/02 01:58:43;;;;;;;;;5.50;4.25;;;;;9.26;71.52;100160.63;5058387;28;45383;-79
2021/12/02 02:01:14;;;;;;;;;9.00;6.00;;;;;9.22;71.35;100158.88;5059378;28;45375;-79
2021/12/02 02:03:40;;;;;;;;;5.33;4.33;;;;;9.27;71.32;100180.81;5040449;28;45283;-79
2021/12/02 02:06:06;;;;;;;;;8.75;6.00;;;;;9.28;71.40;100191.41;5058243;28;45426;-79
2021/12/02 02:08:32;;;;;;;;;7.50;6.00;;;;;9.30;71.45;100192.28;5039865;28;45462;-79
2021/12/02 02:10:57;;;;;;;;;3.00;3.00;;;;;9.31;71.23;100198.41;5057553;28;45306;-79
2021/12/02 02:13:23;;;;;;;;;4.50;4.25;;;;;9.29;71.07;100198.41;5057178;28;46700;-78
2021/12/02 02:15:51;;;;;;;;;3.75;3.00;;;;;9.31;71.34;100190.53;5039672;28;47003;-79
2021/12/02 02:18:21;;;;;;;;;5.75;4.25;;;;;9.32;71.40;100203.72;5039362;28;45328;-79
2021/12/02 02:23:24;;;;;;;;;4.25;4.25;;;;;9.29;71.11;100190.53;5057282;28;45360;-79
2021/12/02 02:25:50;;;;;;;;;11.00;3.67;;;;;9.35;71.05;100206.34;5038752;28;46640;-79
2021/12/02 02:28:18;;;;;;;;;11.25;7.50;;;;;9.38;71.44;100213.41;5057372;28;45470;-78
2021/12/02 02:30:44;;;;;;;;;6.00;4.00;;;;;9.40;71.32;100215.16;5057333;28;48859;-77
2021/12/02 02:33:12;;;;;;;;;5.00;3.67;;;;;9.41;71.36;100219.56;5057291;28;45169;-77
2021/12/02 02:35:42;;;;;;;;;5.25;2.00;;;;;9.41;71.23;100218.69;5056372;28;46487;-77
2021/12/02 02:38:07;;;;;;;;;3.00;3.00;;;;;9.44;71.01;100219.59;5057441;28;45438;-76
2021/12/02 02:40:33;;;;;;;;;3.00;3.00;;;;;9.45;71.16;100226.63;5055368;28;45479;-77
2021/12/02 02:43:07;;;;;;;;;6.33;5.33;;;;;9.43;70.66;100232.78;5056963;28;45237;-77
2021/12/02 02:45:33;;;;;;;;;5.33;4.00;;;;;9.40;70.91;100235.38;5056727;28;46267;-77
2021/12/02 02:48:01;;;;;;;;;6.00;3.00;;;;;9.38;70.48;100229.22;5057166;28;45510;-77
2021/12/02 02:50:29;;;;;;;;;3.33;1.33;;;;;9.38;70.56;100231.84;5039180;28;45428;-77
2021/12/02 02:53:02;;;;;;;;;2.00;2.00;;;;;9.37;70.32;100233.56;5057208;28;46244;-78
2021/12/02 02:55:31;;;;;;;;;4.00;2.00;;;;;9.39;70.17;100237.13;5039712;28;47529;-77
2021/12/02 02:58:12;;;;;;;;;2.00;2.00;;;;;9.30;70.23;100226.53;5038984;28;45351;-77
2021/12/02 03:00:46;;;;;;;;;6.00;2.33;;;;;9.38;70.14;100243.28;5040059;28;45665;-77
2021/12/02 03:06:22;;;;;;;;;2.00;2.00;;;;;9.40;70.09;100246.78;5025318;28;45654;-77
2021/12/02 03:08:56;;;;;;;;;6.33;2.00;;;;;9.41;70.04;100250.31;5043186;28;45457;-77
2021/12/02 03:11:21;;;;;;;;;1.00;1.00;;;;;9.40;69.99;100253.81;5023157;28;45292;-78
2021/12/02 03:13:51;;;;;;;;;2.33;2.33;;;;;9.41;69.88;100260.84;5056404;28;45146;-79
2021/12/02 03:19:25;;;;;;;;;2.33;1.33;;;;;9.39;69.56;100273.13;4990812;28;45899;-77
2021/12/02 03:21:52;;;;;;;;;1.33;1.00;;;;;9.37;69.70;100277.50;4995058;28;45326;-78
2021/12/02 03:24:19;;;;;;;;;3.67;1.00;;;;;9.38;69.66;100280.16;5024474;28;45494;-78
2021/12/02 03:26:45;;;;;;;;;1.00;1.00;;;;;9.36;69.15;100279.25;5038761;28;46495;-77
2021/12/02 03:29:10;;;;;;;;;1.00;1.00;;;;;9.29;69.30;100269.56;5055921;28;45229;-78
2021/12/02 03:31:36;;;;;;;;;0.00;0.00;;;;;9.34;69.52;100278.38;5055850;28;58549;-78
2021/12/02 03:34:01;;;;;;;;;2.00;0.00;;;;;9.30;69.34;100268.69;5055974;28;58973;-78
2021/12/02 03:36:27;;;;;;;;;1.00;1.00;;;;;9.28;69.32;100266.91;5038515;28;46525;-77
2021/12/02 03:38:53;;;;;;;;;2.67;1.00;;;;;9.28;68.89;100286.22;5056639;28;45369;-78
2021/12/02 03:41:18;;;;;;;;;3.33;0.00;;;;;9.25;69.17;100275.66;5056589;28;45499;-78
2021/12/02 03:43:50;;;;;;;;;1.00;1.00;;;;;9.20;69.19;100285.28;5056968;28;45402;-77
2021/12/02 03:46:17;;;;;;;;;5.00;1.00;;;;;9.16;68.97;100289.66;5038334;28;46683;-77
2021/12/02 03:48:43;;;;;;;;;2.67;1.00;;;;;9.11;69.27;100287.88;5056372;28;45315;-78
2021/12/02 03:51:11;;;;;;;;;0.67;0.67;;;;;9.15;68.67;100305.44;5055671;28;45813;-78
2021/12/02 03:53:37;;;;;;;;;1.00;1.00;;;;;9.10;68.24;100299.25;5018316;28;45413;-77
2021/12/02 03:56:03;;;;;;;;;0.00;0.00;;;;;9.10;67.95;100310.66;5050590;28;46769;-78
2021/12/02 03:58:31;;;;;;;;;0.00;0.00;;;;;9.07;67.06;100315.91;5055372;28;45454;-78
2021/12/02 04:00:57;;;;;;;;;1.67;0.67;;;;;9.01;67.21;100313.22;5055754;28;60995;-78
2021/12/02 04:03:22;;;;;;;;;2.00;0.00;;;;;8.96;66.86;100311.44;5056531;28;45477;-78
2021/12/02 04:05:48;;;;;;;;;2.00;0.33;;;;;8.86;66.60;100303.44;5055817;28;63082;-77
2021/12/02 04:08:13;;;;;;;;;1.00;1.00;;;;;8.88;66.55;100309.59;5056192;28;45319;-78
2021/12/02 04:10:42;;;;;;;;;1.33;1.00;;;;;8.86;66.49;100297.28;5056379;28;45307;-77
2021/12/02 04:15:42;;;;;;;;;2.33;1.00;;;;;8.77;66.37;100316.50;5057856;28;45862;-78
2021/12/02 04:18:07;;;;;;;;;1.67;0.33;;;;;8.78;66.05;100325.28;5059450;28;45268;-77
2021/12/02 04:20:37;;;;;;;;;1.33;0.00;;;;;8.76;66.22;100317.38;5058742;28;45782;-78
2021/12/02 04:23:02;;;;;;;;;5.00;1.00;;;;;8.69;65.66;100312.03;5059618;28;45288;-78
2021/12/02 04:25:28;;;;;;;;;2.00;1.00;;;;;8.65;65.94;100329.53;5059010;28;55860;-78
2021/12/02 04:27:53;;;;;;;;;1.00;1.00;;;;;8.57;65.69;100325.94;5058774;28;45494;-78
2021/12/02 04:30:20;;;;;;;;;1.00;0.00;;;;;8.51;65.61;100324.13;5058813;28;45488;-77
2021/12/02 04:32:45;;;;;;;;;3.00;0.00;;;;;8.45;66.01;100338.97;5059544;28;45459;-77
2021/12/02 04:35:11;;;;;;;;;1.00;1.00;;;;;8.42;65.30;100337.19;5059118;28;47369;-78
2021/12/02 04:37:38;;;;;;;;;2.00;1.00;;;;;8.35;65.69;100330.03;5059442;28;45190;-77
2021/12/02 04:40:04;;;;;;;;;1.00;1.00;;;;;8.28;65.61;100344.88;5059352;28;45225;-77
2021/12/02 04:42:29;;;;;;;;;1.00;1.00;;;;;8.25;65.99;100343.94;5059499;28;45539;-78
2021/12/02 04:44:55;;;;;;;;;1.67;0.33;;;;;8.17;65.71;100346.47;5039867;28;63724;-77
2021/12/02 04:47:20;;;;;;;;;5.50;5.50;;;;;8.10;65.89;100352.53;5057105;28;45344;-77
2021/12/02 04:49:46;;;;;;;;;13.00;9.50;;;;;8.06;65.50;100364.75;5055112;28;55665;-78
2021/12/02 04:52:11;;;;;;;;;14.75;11.50;;;;;8.03;66.00;100358.56;5053199;28;45423;-78
2021/12/02 04:54:36;;;;;;;;;14.00;11.00;;;;;7.96;66.11;100360.22;5057774;28;59210;-78
2021/12/02 04:57:02;;;;;;;;;8.25;5.00;;;;;7.89;66.33;100361.00;5059053;28;54603;-77
2021/12/02 04:59:27;;;;;;;;;7.50;6.00;;;;;7.91;66.31;100356.66;5060258;28;45361;-77
2021/12/02 05:01:53;;;;;;;;;16.00;10.75;;;;;7.88;66.61;100360.13;5059022;28;53617;-77
2021/12/02 05:04:18;;;;;;;;;12.00;10.00;;;;;7.93;66.63;100381.19;5057558;28;63995;-78
2021/12/02 05:06:44;;;;;;;;;13.75;10.00;;;;;7.87;66.37;100374.09;5058255;28;57847;-78
2021/12/02 05:09:09;;;;;;;;;19.25;10.50;;;;;7.86;66.49;100380.22;5058504;28;49060;-77
2021/12/02 05:11:34;;;;;;;;;15.75;6.75;;;;;7.86;66.50;100380.22;5058352;28;52418;-77
2021/12/02 05:14:00;;;;;;;;;7.25;5.00;;;;;7.80;66.26;100377.53;5058277;28;51080;-78
2021/12/02 05:16:26;;;;;;;;;1.00;1.00;;;;;7.80;66.46;100387.16;5058541;28;45359;-77
2021/12/02 05:18:51;;;;;;;;;2.00;1.25;;;;;7.75;66.66;100379.19;5039683;28;45639;-78
2021/12/02 05:21:16;;;;;;;;;2.00;1.00;;;;;7.76;66.62;100386.22;5057638;28;45213;-78
2021/12/02 05:23:42;;;;;;;;;1.00;1.00;;;;;7.74;66.58;100389.69;5058382;28;46521;-77
2021/12/02 05:26:07;;;;;;;;;7.00;1.75;;;;;7.72;66.86;100399.28;5056636;28;45368;-78
2021/12/02 05:28:33;;;;;;;;;4.50;0.75;;;;;7.67;66.86;100390.44;5061838;28;60086;-77
2021/12/02 05:30:58;;;;;;;;;4.00;1.50;;;;;7.64;66.88;100400.91;5042261;28;45657;-77
2021/12/02 05:33:23;;;;;;;;;8.00;1.00;;;;;7.61;66.96;100396.47;5067681;28;60458;-78
2021/12/02 05:35:49;;;;;;;;;1.25;0.00;;;;;7.52;66.93;100396.34;5056101;28;53031;-77
2021/12/02 05:38:14;;;;;;;;;1.00;1.00;;;;;7.55;66.86;100417.41;5059474;28;45428;-78
2021/12/02 05:40:40;;;;;;;;;4.00;2.00;;;;;7.52;66.86;100406.88;5054780;28;45552;-76
2021/12/02 05:43:05;;;;;;;;;5.00;2.00;;;;;7.49;66.60;100407.69;5056780;28;47287;-75
2021/12/02 05:45:30;;;;;;;;;3.00;1.50;;;;;7.41;66.91;100398.81;5057047;28;45454;-75
2021/12/02 05:47:56;;;;;;;;;1.50;1.00;;;;;7.43;66.84;100394.44;5057110;28;45678;-77
2021/12/02 05:50:21;;;;;;;;;1.00;1.00;;;;;7.43;67.11;100404.06;5061678;28;45301;-75
2021/12/02 05:52:47;;;;;;;;;1.00;1.00;;;;;7.40;66.95;100404.88;5055995;28;45736;-75
2021/12/02 05:55:12;;;;;;;;;1.00;1.00;;;;;7.33;66.81;100408.28;5055876;28;45434;-77
2021/12/02 05:57:38;;;;;;;;;9.25;2.00;;;;;7.28;67.06;100402.06;5056673;28;45699;-75
2021/12/02 06:00:05;;;;;;;;;6.00;1.00;;;;;7.31;67.03;100426.66;5037711;28;54768;-76
2021/12/02 06:02:31;;;;;;;;;3.75;2.00;;;;;7.27;66.90;100426.56;5053525;28;47436;-79
2021/12/02 06:04:56;;;;;;;;;1.75;1.50;;;;;7.27;67.03;100423.94;5048421;28;45463;-78
2021/12/02 06:07:21;;;;;;;;;7.00;2.00;;;;;7.22;67.10;100423.84;5057240;28;53395;-78
2021/12/02 06:09:47;;;;;;;;;1.00;1.00;;;;;7.22;67.25;100425.59;5057300;28;45162;-78
2021/12/02 06:12:13;;;;;;;;;5.00;1.00;;;;;7.20;67.12;100430.81;5037805;28;46138;-79
2021/12/02 06:14:38;;;;;;;;;2.25;2.00;;;;;7.19;66.84;100429.06;5051423;28;45437;-80
2021/12/02 06:17:04;;;;;;;;;5.50;1.00;;;;;7.17;66.59;100430.75;5041801;28;49669;-79
2021/12/02 06:19:29;;;;;;;;;3.00;1.00;;;;;7.15;66.90;100421.09;5019201;28;45579;-77
2021/12/02 06:21:55;;;;;;;;;1.00;1.00;;;;;7.15;67.14;100428.97;5058942;28;58080;-77
2021/12/02 06:24:28;;;;;;;;;5.00;2.00;;;;;7.15;67.19;100423.72;5050762;28;45481;-79
2021/12/02 06:26:53;;;;;;;;;1.75;1.75;;;;;7.14;67.05;100421.94;5057165;28;45475;-78
2021/12/02 06:29:19;;;;;;;;;8.50;2.00;;;;;7.12;66.94;100416.66;5046646;28;45674;-78
2021/12/02 06:31:44;;;;;;;;;4.25;1.00;;;;;7.07;66.94;100418.31;5055447;28;65322;-78
2021/12/02 06:37:45;;;;;;;;;6.50;1.00;;;;;7.07;66.78;100439.31;4982654;28;45580;-80
2021/12/02 06:40:11;;;;;;;;;6.00;1.25;;;;;7.04;67.05;100429.66;5036468;28;45761;-80
2021/12/02 06:42:36;;;;;;;;;2.00;1.00;;;;;7.00;67.00;100422.56;5040574;28;47505;-81
2021/12/02 06:45:04;;;;;;;;;5.75;1.00;;;;;7.02;66.43;100443.59;5064312;28;57593;-81
2021/12/02 06:47:36;;;;;;;;;5.25;2.00;;;;;6.95;66.68;100433.84;5054734;28;45388;-80
2021/12/02 06:50:03;;;;;;;;;2.50;1.00;;;;;6.97;66.81;100459.25;5039013;28;45552;-80
2021/12/02 06:52:32;;;;;;;;;6.00;1.00;;;;;6.94;66.72;100459.22;5026187;28;47509;-82
2021/12/02 06:55:00;;;;;;;;;3.00;1.00;;;;;6.90;66.78;100472.22;5055253;28;45575;-80
2021/12/02 06:57:28;;;;;;;;;1.50;1.50;;;;;6.92;66.80;100475.75;5018228;28;45452;-80
2021/12/02 06:59:59;;;;;;;;;3.50;1.00;;;;;6.98;66.83;100481.16;5054383;28;45368;-83
2021/12/02 07:02:25;;;;;;;;;4.75;1.00;;;;;7.05;66.56;100486.53;5017199;28;46167;-79
2021/12/02 07:04:50;;;;;;;;;2.00;2.00;;;;;7.14;66.76;100495.44;5053117;28;45345;-80
2021/12/02 07:07:16;;;;;;;;;2.00;2.00;;;;;7.18;66.33;100492.91;5054891;28;45402;-77
2021/12/02 07:09:42;;;;;;;;;7.50;3.00;;;;;7.25;66.38;100505.31;5045125;28;56776;-77
2021/12/02 07:12:48;;;;;;;;;3.00;3.00;;;;;7.27;66.01;100492.22;5044395;28;46431;-82
2021/12/02 07:15:17;;;;;;;;;4.75;2.75;;;;;7.23;66.26;100493.88;5029285;28;45437;-79
2021/12/02 07:17:44;;;;;;;;;3.00;3.00;;;;;7.24;66.07;100503.53;5024910;28;45534;-79
2021/12/02 07:20:10;;;;;;;;;1.00;1.00;;;;;7.18;65.90;100505.16;5025909;28;45439;-77
2021/12/02 07:22:36;;;;;;;;;1.75;1.25;;;;;7.13;66.14;100518.19;5012633;28;46870;-78
2021/12/02 07:42:06;;;;;;;;;3.25;1.00;;;;;7.05;66.35;100514.53;5141281;22;45628;-79
2021/12/02 07:44:33;;;;;;;;;5.00;3.00;;;;;7.09;65.86;100512.00;5061229;28;45344;-78
2021/12/02 07:47:02;;;;;;;;;2.25;2.00;;;;;7.17;66.14;100513.88;5045206;28;45672;-79
2021/12/02 07:49:27;;;;;;;;;3.00;1.00;;;;;7.18;66.40;100513.91;5071315;28;45519;-81
2021/12/02 07:51:53;;;;;;;;;6.00;2.00;;;;;7.21;65.96;100508.72;5049032;28;45646;-80
2021/12/02 08:01:33;;;;;;;;;4.50;2.00;;;;;7.33;66.05;100524.72;5069724;28;45386;-80
2021/12/02 08:03:58;;;;;;;;;4.00;2.00;;;;;7.35;65.59;100537.91;5067572;28;45587;-79
2021/12/02 08:13:08;;;;;;;;;6.75;1.00;;;;;7.39;65.61;100533.56;5133555;22;46326;-79
2021/12/02 08:15:34;;;;;;;;;1.25;0.00;;;;;7.43;65.55;100551.16;5021936;28;46286;-82
2021/12/02 08:24:43;;;;;;;;;3.50;1.50;;;;;7.43;65.27;100564.31;5072593;22;45808;-80
2021/12/02 08:27:09;;;;;;;;;4.25;2.00;;;;;7.38;65.44;100561.59;5045038;28;45680;-78
2021/12/02 08:29:34;;;;;;;;;7.00;1.75;;;;;7.37;65.35;100562.44;5043650;28;45407;-81
2021/12/02 08:32:02;;;;;;;;;3.50;2.00;;;;;7.26;65.25;100554.34;5042353;28;60048;-80
2021/12/02 08:34:27;;;;;;;;;2.00;2.00;;;;;7.31;64.91;100568.47;5041791;28;46694;-80
2021/12/02 08:36:54;;;;;;;;;7.25;3.00;;;;;7.31;65.43;100572.84;5047995;28;45541;-78
2021/12/02 08:39:26;;;;;;;;;2.75;2.75;;;;;7.27;65.48;100579.75;5048220;28;45644;-81
2021/12/02 08:41:54;;;;;;;;;7.00;2.00;;;;;7.19;65.39;100569.94;5045701;28;47635;-80
2021/12/02 08:44:19;;;;;;;;;5.50;2.75;;;;;7.21;65.64;100578.75;5043288;28;45827;-81
2021/12/02 08:46:47;;;;;;;;;2.75;1.00;;;;;7.19;65.52;100585.69;5042190;28;45720;-79
2021/12/02 08:49:12;;;;;;;;;4.25;2.00;;;;;7.16;65.49;100583.91;5029133;28;45724;-80
2021/12/02 08:51:37;;;;;;;;;2.50;1.00;;;;;7.13;65.78;100580.31;5041354;28;47388;-80
2021/12/02 08:54:03;;;;;;;;;5.00;1.75;;;;;7.17;65.60;100590.91;5048618;28;45584;-78
2021/12/02 08:56:28;;;;;;;;;9.50;2.25;;;;;7.18;65.39;100590.06;5044338;28;45388;-81
2021/12/02 08:58:54;;;;;;;;;3.50;3.00;;;;;7.18;65.74;100590.06;5044662;28;45733;-81
2021/12/02 09:01:23;;;;;;;;;6.25;3.00;;;;;7.18;65.54;100592.69;5038576;28;59096;-79
2021/12/02 09:04:11;;;;;;;;;7.00;3.00;;;;;7.27;65.61;100606.00;5050529;28;46414;-82
2021/12/02 09:10:07;;;;;;;;;2.00;2.00;;;;;7.40;65.18;100619.38;5050804;28;45548;-76
2021/12/02 09:12:51;;;;;;;;;7.50;5.25;;;;;7.46;65.38;100611.66;5045220;28;46836;-81
2021/12/02 09:22:55;;;;;;;;;2.00;2.00;;;;;7.56;64.95;100619.75;5049957;28;45562;-80
2021/12/02 09:29:37;;;;;;;;;10.00;2.25;;;;;7.69;64.11;100625.22;5041738;28;45618;-80
2021/12/02 09:32:13;;;;;;;;;1.75;1.25;;;;;7.46;64.36;100595.91;5024160;28;46394;-79
2021/12/02 09:34:38;;;;;;;;;6.00;2.00;;;;;7.59;64.39;100624.16;5029201;28;45495;-82
2021/12/02 09:37:03;;;;;;;;;8.25;1.00;;;;;7.62;64.38;100624.25;5034631;28;61398;-82
2021/12/02 09:39:31;;;;;;;;;3.00;2.00;;;;;7.68;64.74;100620.84;5027805;28;50770;-80
2021/12/02 09:41:56;;;;;;;;;4.50;2.50;;;;;7.81;64.55;100634.22;5029233;28;45590;-78
2021/12/02 09:44:22;;;;;;;;;6.25;1.00;;;;;7.89;64.46;100629.13;5030335;28;45571;-80
2021/12/02 09:46:47;;;;;;;;;4.00;2.00;;;;;7.98;64.46;100631.03;5031055;28;54689;-78
2021/12/02 09:49:13;;;;;;;;;6.00;2.00;;;;;8.01;64.05;100642.50;5030149;28;61593;-78
2021/12/02 09:54:26;;;;;;;;;6.25;1.50;;;;;7.93;63.82;100636.19;5027741;28;45564;-81
2021/12/02 09:56:54;;;;;;;;;3.00;1.00;;;;;7.87;63.91;100644.84;5011446;28;47339;-83
2021/12/02 10:01:54;;;;;;;;;2.33;1.00;;;;;7.81;63.76;100644.75;5027358;28;45641;-80
2021/12/02 10:04:21;;;;;;;;;4.25;2.00;;;;;7.74;63.88;100650.75;5026685;28;45483;-82
2021/12/02 10:06:47;;;;;;;;;4.33;1.00;;;;;7.73;64.00;100643.72;5030494;28;46502;-81
2021/12/02 10:09:37;;;;;;;;;6.67;1.00;;;;;7.81;63.89;100657.00;5027135;28;45426;-80
2021/12/02 10:12:07;;;;;;;;;0.00;0.00;;;;;7.77;63.86;100647.28;5142713;22;45733;-80
2021/12/02 10:14:38;;;;;;;;;0.75;0.25;;;;;7.80;62.89;100644.72;5035580;28;45397;-78
2021/12/02 10:17:07;;;;;;;;;4.50;2.00;;;;;7.79;63.25;100667.50;5013854;28;46551;-80
2021/12/02 10:19:32;;;;;;;;;3.00;1.00;;;;;7.77;63.69;100660.41;5019735;28;45495;-80
2021/12/02 10:22:08;;;;;;;;;1.50;1.00;;;;;7.78;63.52;100649.06;5000037;28;45401;-79
2021/12/02 10:24:43;;;;;;;;;1.67;0.67;;;;;7.78;63.70;100663.09;5028986;28;45482;-77
2021/12/02 10:27:08;;;;;;;;;1.75;0.00;;;;;7.79;63.23;100659.59;5002199;28;47973;-76
2021/12/02 10:29:35;;;;;;;;;2.25;1.00;;;;;7.80;63.21;100661.38;5020119;28;45842;-79
2021/12/02 10:32:06;;;;;;;;;1.50;1.00;;;;;7.82;63.03;100675.41;5027055;28;45525;-76
2021/12/02 10:34:43;;;;;;;;;1.75;1.50;;;;;7.77;62.15;100674.44;5016252;28;45463;-81
2021/12/02 10:37:10;;;;;;;;;3.00;2.00;;;;;7.81;62.33;100667.50;4990997;28;47825;-77
2021/12/02 10:39:35;;;;;;;;;6.00;1.00;;;;;7.81;62.00;100670.13;5022948;28;45547;-77
2021/12/02 10:42:06;;;;;;;;;4.50;1.00;;;;;7.82;62.63;100654.38;5026905;28;45446;-77
2021/12/02 10:44:35;;;;;;;;;0.75;0.75;;;;;7.78;62.66;100642.06;5017877;28;45594;-77
2021/12/02 10:47:03;;;;;;;;;8.25;1.50;;;;;7.87;62.64;100652.75;5026894;28;45723;-76
2021/12/02 10:49:31;;;;;;;;;1.00;1.00;;;;;7.95;62.54;100652.91;5029774;28;46080;-76
2021/12/02 10:52:01;;;;;;;;;1.50;1.50;;;;;8.11;62.63;100644.44;5022688;28;45430;-77
2021/12/02 10:54:34;;;;;;;;;1.50;0.75;;;;;8.25;62.40;100641.13;5022720;28;45412;-77
2021/12/02 10:57:21;;;;;;;;;5.67;0.33;;;;;8.41;61.61;100643.19;5009122;28;47187;-78
2021/12/02 10:59:51;;;;;;;;;5.00;1.50;;;;;8.46;61.46;100633.63;5009864;28;45510;-77
2021/12/02 11:02:23;;;;;;;;;3.00;2.00;;;;;8.56;61.05;100646.09;5032239;28;45574;-78
2021/12/02 11:05:35;;;;;;;;;3.00;0.67;;;;;8.59;60.32;100630.38;5016192;28;45605;-77
2021/12/02 11:08:05;;;;;;;;;1.50;1.00;;;;;8.66;60.20;100634.84;5016640;28;45744;-79
2021/12/02 11:10:44;;;;;;;;;1.00;1.00;;;;;8.72;59.14;100633.19;5030630;28;45591;-79
2021/12/02 11:13:11;;;;;;;;;1.00;1.00;;;;;8.76;59.25;100633.25;5014629;28;45510;-78
2021/12/02 11:15:39;;;;;;;;;4.50;1.00;;;;;8.74;58.12;100634.09;5007213;28;45725;-77
2021/12/02 11:18:09;;;;;;;;;0.67;0.00;;;;;8.70;55.67;100632.28;5011382;28;47472;-77
2021/12/02 11:20:41;;;;;;;;;0.00;0.00;;;;;8.60;56.56;100637.38;4998874;28;45469;-77
2021/12/02 11:23:14;;;;;;;;;0.00;0.00;;;;;8.56;56.05;100632.06;4993301;28;45436;-78
2021/12/02 11:26:03;;;;;;;;;2.33;0.00;;;;;8.54;56.05;100623.25;4995723;28;45651;-79
2021/12/02 11:28:31;;;;;;;;;0.00;0.00;;;;;8.48;55.86;100615.28;4996340;28;46604;-79
2021/12/02 11:30:57;;;;;;;;;3.00;0.00;;;;;8.44;56.13;100619.59;5001512;28;45480;-78
2021/12/02 11:33:29;;;;;;;;;1.33;0.00;;;;;8.50;55.76;100632.84;4999899;28;45644;-80
2021/12/02 11:35:54;;;;;;;;;0.00;0.00;;;;;8.45;54.29;100631.88;4995877;28;45519;-80
2021/12/02 11:38:23;;;;;;;;;0.00;0.00;;;;;8.38;55.08;100624.75;4988470;28;56150;-78
2021/12/02 11:40:50;;;;;;;;;0.00;0.00;;;;;8.31;54.53;100634.25;5007085;28;45420;-80
2021/12/02 11:43:21;;;;;;;;;1.00;0.00;;;;;8.24;55.39;100627.09;5007181;28;45527;-79
2021/12/02 11:45:48;;;;;;;;;0.00;0.00;;;;;8.14;55.17;100618.16;5005154;28;45895;-78
2021/12/02 11:48:18;;;;;;;;;0.33;0.00;;;;;8.11;54.71;100620.75;5003657;28;46531;-78
2021/12/02 11:50:43;;;;;;;;;0.00;0.00;;;;;8.07;55.44;100618.06;5011484;28;45456;-79
2021/12/02 11:53:09;;;;;;;;;0.00;0.00;;;;;8.08;55.77;100617.19;4979348;28;45575;-79
2021/12/02 11:55:38;;;;;;;;;0.00;0.00;;;;;8.11;55.77;100612.00;5011020;28;45536;-79
2021/12/02 11:58:03;;;;;;;;;0.00;0.00;;;;;8.19;56.30;100620.88;5008799;28;47452;-79
2021/12/02 12:00:29;;;;;;;;;0.00;0.00;;;;;8.33;55.11;100613.25;5002727;28;45603;-80
2021/12/02 12:03:02;;;;;;;;;1.00;0.00;;;;;8.43;55.42;100606.41;5008709;28;45535;-79
2021/12/02 12:05:58;;;;;;;;;1.00;0.00;;;;;8.52;55.04;100614.44;4981896;28;45590;-79
2021/12/02 12:08:34;;;;;;;;;1.00;1.00;;;;;8.71;54.87;100595.44;4960444;28;48767;-79
2021/12/02 12:11:22;;;;;;;;;0.67;0.00;;;;;8.85;55.18;100599.16;4996054;28;45278;-79
2021/12/02 12:13:56;;;;;;;;;0.00;0.00;;;;;8.91;55.28;100593.97;4996829;28;45465;-79
2021/12/02 12:16:49;;;;;;;;;0.00;0.00;;;;;9.05;55.37;100593.28;4992716;28;45554;-79
2021/12/02 12:19:30;;;;;;;;;0.67;0.00;;;;;9.13;52.80;100612.72;4986930;28;45873;-79
2021/12/02 12:22:00;;;;;;;;;0.00;0.00;;;;;9.06;53.61;100600.34;5005424;28;45519;-79
2021/12/02 12:24:56;;;;;;;;;1.00;0.00;;;;;9.17;54.00;100610.13;5011402;28;45300;-79
2021/12/02 12:27:22;;;;;;;;;0.00;0.00;;;;;9.18;53.73;100611.03;4990557;28;45438;-79
2021/12/02 12:30:01;;;;;;;;;0.00;0.00;;;;;9.16;53.29;100604.81;4999329;28;46650;-79
2021/12/02 12:32:41;;;;;;;;;1.33;0.00;;;;;9.13;53.71;100618.84;5010124;28;45480;-79
2021/12/02 12:35:44;;;;;;;;;0.00;0.00;;;;;9.11;53.90;100610.06;4997314;28;45605;-79
2021/12/02 12:38:03;;;;;;;;;0.00;0.00;;;;;9.08;54.07;100615.28;4996239;28;45309;-80
2021/12/02 12:40:42;;;;;;;;;0.00;0.00;;;;;9.00;54.21;100609.03;4998867;28;48064;-79
2021/12/02 12:43:07;;;;;;;;;1.00;0.00;;;;;8.92;53.57;100614.19;4981860;28;45519;-79
2021/12/02 12:45:36;;;;;;;;;0.00;0.00;;;;;8.83;52.57;100614.03;4997235;28;45574;-79
2021/12/02 12:48:04;;;;;;;;;0.00;0.00;;;;;8.70;52.52;100611.22;5012197;28;45293;-80
2021/12/02 12:50:39;;;;;;;;;0.00;0.00;;;;;8.66;53.19;100623.44;4979061;28;46482;-82
2021/12/02 12:53:04;;;;;;;;;1.00;1.00;;;;;8.59;53.05;100613.69;4991909;28;45680;-77
2021/12/02 12:55:56;;;;;;;;;1.00;0.00;;;;;8.59;52.25;100621.59;5008226;28;45591;-78
2021/12/02 12:58:23;;;;;;;;;0.00;0.00;;;;;8.57;52.41;100632.06;5005035;28;45678;-79